Terminal Aerodrome Forecast
Issued by NWS Twin Cities, MN

Home | Current Version | Previous Version | Graphics & Text | Print | Product List | Glossary On
Versions: 1 2 3 4 5 6 7 8 9 10 11 12 13 14 15 16 17 18 19 20 21 22 23 24 25 26 27 28 29 30
000
FTUS43 KMPX 222339
TAFMSP
TAF
KMSP 222339Z 2300/2406 08005KT P6SM FEW250
     FM231200 12008KT P6SM SCT035 BKN110
      TEMPO 2314/2318 3SM TSRA BKN035CB
     FM231800 14012G19KT P6SM SCT040 BKN090
      TEMPO 2400/2404 3SM TSRA BKN035CB
     FM240400 17009KT P6SM VCSH BKN060=

USA.gov is the U.S. government's official web portal to all federal, state and local government web resources and services.